createdAt,value
2017-08-29T00:00:49.213Z,14.40
2017-08-29T00:03:18.565Z,14.30
2017-08-29T00:05:48.868Z,14.46
2017-08-29T00:08:18.038Z,14.25
2017-08-29T00:10:49.614Z,14.34
2017-08-29T00:13:19.990Z,14.18
2017-08-29T00:15:49.430Z,14.19
2017-08-29T00:18:18.981Z,14.28
2017-08-29T00:20:48.476Z,14.12
2017-08-29T00:23:17.750Z,14.24
2017-08-29T00:25:48.344Z,14.08
2017-08-29T00:28:18.241Z,14.02
2017-08-29T00:30:47.830Z,14.50
2017-08-29T00:33:17.498Z,14.15
2017-08-29T00:35:47.618Z,14.29
2017-08-29T00:38:17.110Z,14.55
2017-08-29T00:40:48.686Z,13.94
2017-08-29T00:43:18.599Z,14.13
2017-08-29T00:45:48.478Z,14.18
2017-08-29T00:48:17.772Z,14.27
2017-08-29T00:50:48.288Z,14.27
2017-08-29T00:53:18.400Z,14.31
2017-08-29T00:55:49.122Z,14.15
2017-08-29T00:58:18.619Z,14.24
2017-08-29T01:00:50.182Z,14.32
2017-08-29T01:03:21.457Z,14.24
2017-08-29T01:05:50.930Z,14.26
2017-08-29T01:08:20.734Z,14.21
2017-08-29T01:10:51.120Z,14.13
2017-08-29T01:13:21.710Z,14.11
2017-08-29T01:15:51.210Z,14.09
2017-08-29T01:18:20.863Z,14.19
2017-08-29T01:20:50.531Z,14.28
2017-08-29T01:23:20.075Z,14.25
2017-08-29T01:25:55.555Z,14.27
2017-08-29T01:28:25.498Z,14.34
2017-08-29T01:30:56.836Z,14.38
2017-08-29T01:33:33.895Z,14.44
2017-08-29T01:36:03.518Z,14.37
2017-08-29T01:38:32.947Z,13.93
2017-08-29T01:41:05.418Z,14.07
2017-08-29T01:43:34.934Z,14.24
2017-08-29T01:46:04.197Z,14.36
2017-08-29T01:48:33.522Z,14.43
2017-08-29T01:51:03.386Z,14.00
2017-08-29T01:53:32.767Z,14.27
2017-08-29T01:56:02.008Z,14.18
2017-08-29T01:58:31.894Z,14.07
2017-08-29T02:01:01.170Z,14.24
2017-08-29T02:03:30.518Z,14.36
2017-08-29T02:06:00.040Z,14.46
2017-08-29T02:08:29.666Z,14.50
2017-08-29T02:10:59.111Z,14.44
2017-08-29T02:13:28.615Z,14.43
2017-08-29T02:15:58.035Z,14.42
2017-08-29T02:18:27.367Z,14.44
2017-08-29T02:20:58.344Z,14.48
2017-08-29T02:23:27.514Z,14.52
2017-08-29T02:25:58.147Z,14.57
2017-08-29T02:28:27.930Z,14.51
2017-08-29T02:30:57.604Z,14.47
2017-08-29T02:33:26.991Z,14.39
2017-08-29T02:35:56.528Z,14.54
2017-08-29T02:38:26.254Z,14.46
2017-08-29T02:40:55.803Z,14.44
2017-08-29T02:43:25.527Z,14.50
2017-08-29T02:45:55.343Z,14.55
2017-08-29T02:48:29.151Z,14.43
2017-08-29T02:50:58.911Z,14.42
2017-08-29T02:53:28.521Z,14.00
2017-08-29T02:55:58.091Z,13.94
2017-08-29T02:58:27.839Z,14.02
2017-08-29T03:00:57.671Z,13.93
2017-08-29T03:03:26.927Z,13.95
2017-08-29T03:05:56.523Z,13.47
2017-08-29T03:08:26.239Z,13.67
2017-08-29T03:10:55.843Z,13.93
2017-08-29T03:13:25.321Z,13.62
2017-08-29T03:15:55.341Z,13.55
2017-08-29T03:18:24.772Z,13.75
2017-08-29T03:20:53.963Z,13.81
2017-08-29T03:23:23.912Z,14.05
2017-08-29T03:25:53.463Z,14.04
2017-08-29T03:28:23.799Z,13.99
2017-08-29T03:30:53.623Z,14.09
2017-08-29T03:33:23.111Z,14.09
2017-08-29T03:35:52.531Z,14.04
2017-08-29T03:38:22.230Z,13.41
2017-08-29T03:40:51.555Z,13.39
2017-08-29T03:43:21.062Z,13.28
2017-08-29T03:45:50.643Z,13.59
2017-08-29T03:48:20.147Z,13.81
2017-08-29T03:50:49.574Z,13.87
2017-08-29T03:53:19.374Z,13.93
2017-08-29T03:55:48.962Z,13.94
2017-08-29T03:58:18.588Z,13.96
2017-08-29T04:00:48.619Z,13.82
2017-08-29T04:03:18.179Z,13.82
2017-08-29T04:05:47.725Z,13.21
2017-08-29T04:08:17.447Z,13.39
2017-08-29T04:10:49.298Z,13.05
2017-08-29T04:13:20.248Z,13.24
2017-08-29T04:15:50.311Z,12.61
2017-08-29T04:18:19.639Z,12.48
2017-08-29T04:20:50.218Z,12.81
2017-08-29T04:23:19.751Z,12.42
2017-08-29T04:25:48.915Z,12.55
2017-08-29T04:28:18.059Z,13.02
2017-08-29T04:30:48.423Z,13.05
2017-08-29T04:33:17.980Z,13.10
2017-08-29T04:35:48.494Z,12.80
2017-08-29T04:38:18.514Z,12.97
2017-08-29T04:40:48.396Z,13.10
2017-08-29T04:43:17.931Z,13.20
2017-08-29T04:45:48.499Z,13.32
2017-08-29T04:48:17.678Z,13.40
2017-08-29T04:50:48.087Z,13.42
2017-08-29T04:53:17.823Z,13.49
2017-08-29T04:55:48.252Z,13.53
2017-08-29T04:58:17.481Z,13.54
2017-08-29T05:00:49.923Z,13.52
2017-08-29T05:03:19.163Z,13.37
2017-08-29T05:05:48.519Z,13.50
2017-08-29T05:08:18.146Z,13.56
2017-08-29T05:10:49.399Z,13.53
2017-08-29T05:13:18.599Z,13.58
2017-08-29T05:15:48.054Z,13.68
2017-08-29T05:18:17.278Z,13.71
2017-08-29T05:20:48.142Z,13.78
2017-08-29T05:23:17.711Z,13.78
2017-08-29T05:25:47.976Z,13.78
2017-08-29T05:28:17.275Z,13.81
2017-08-29T05:30:48.554Z,13.69
2017-08-29T05:33:17.999Z,13.55
2017-08-29T05:35:48.740Z,13.72
2017-08-29T05:38:18.411Z,13.66
2017-08-29T05:40:48.183Z,13.67
2017-08-29T05:43:18.541Z,13.54
2017-08-29T05:45:49.435Z,13.88
2017-08-29T05:48:18.744Z,13.97
2017-08-29T05:50:48.352Z,13.74
2017-08-29T05:53:18.094Z,13.75
2017-08-29T05:55:47.279Z,13.94
2017-08-29T05:58:16.452Z,13.90
2017-08-29T06:00:48.206Z,13.77
2017-08-29T06:03:17.375Z,13.80
2017-08-29T06:05:48.039Z,13.98
2017-08-29T06:08:17.579Z,14.36
2017-08-29T06:10:48.028Z,14.64
2017-08-29T06:13:17.400Z,14.78
2017-08-29T06:15:48.475Z,14.85
2017-08-29T06:18:18.087Z,14.97
2017-08-29T06:20:47.768Z,14.97
2017-08-29T06:23:17.236Z,15.09
2017-08-29T06:25:48.290Z,15.05
2017-08-29T06:28:17.496Z,15.36
2017-08-29T06:30:49.738Z,15.53
2017-08-29T06:33:19.007Z,15.51
2017-08-29T06:35:48.343Z,15.53
2017-08-29T06:38:18.366Z,15.74
2017-08-29T06:40:48.119Z,15.81
2017-08-29T06:43:18.153Z,15.96
2017-08-29T06:45:47.615Z,15.96
2017-08-29T06:48:16.986Z,16.02
2017-08-29T06:50:46.184Z,16.29
2017-08-29T06:53:15.739Z,16.36
2017-08-29T06:55:46.395Z,16.73
2017-08-29T06:58:15.827Z,16.66
2017-08-29T07:00:45.446Z,16.84
2017-08-29T07:03:14.812Z,17.00
2017-08-29T07:05:44.410Z,17.09
2017-08-29T07:08:14.215Z,17.22
2017-08-29T07:10:43.422Z,17.27
2017-08-29T07:13:12.979Z,17.39
2017-08-29T07:15:48.089Z,17.24
2017-08-29T07:18:17.243Z,18.06
2017-08-29T07:20:47.760Z,18.46
2017-08-29T07:23:17.682Z,18.52
2017-08-29T07:25:48.033Z,18.88
2017-08-29T07:28:17.210Z,19.12
2017-08-29T07:30:46.643Z,19.00
2017-08-29T07:33:15.801Z,19.12
2017-08-29T07:35:45.004Z,19.17
2017-08-29T07:38:14.431Z,19.45
2017-08-29T07:40:43.583Z,18.45
2017-08-29T07:43:13.138Z,18.62
2017-08-29T07:45:43.247Z,19.71
2017-08-29T07:48:12.403Z,19.71
2017-08-29T07:50:41.608Z,19.93
2017-08-29T07:53:11.081Z,19.89
2017-08-29T07:55:40.418Z,20.44
2017-08-29T07:58:09.768Z,21.00
2017-08-29T08:00:40.763Z,20.70
2017-08-29T08:03:10.048Z,20.56
2017-08-29T08:05:39.620Z,20.02
2017-08-29T08:08:09.247Z,20.11
2017-08-29T08:10:38.771Z,20.63
2017-08-29T08:13:08.029Z,20.40
2017-08-29T08:15:37.627Z,19.97
2017-08-29T08:18:06.846Z,20.33
2017-08-29T08:20:39.882Z,20.94
2017-08-29T08:23:10.214Z,20.58
2017-08-29T08:25:39.719Z,20.53
2017-08-29T08:28:10.046Z,20.53
2017-08-29T08:30:39.642Z,21.32
2017-08-29T08:33:09.193Z,21.20
2017-08-29T08:35:38.458Z,21.38
2017-08-29T08:38:08.403Z,21.69
2017-08-29T08:40:38.073Z,21.59
2017-08-29T08:43:08.743Z,21.24
2017-08-29T08:45:38.386Z,21.48
2017-08-29T08:48:07.594Z,21.98
2017-08-29T08:50:40.024Z,21.68
2017-08-29T08:53:09.847Z,22.58
2017-08-29T08:55:39.191Z,23.53
2017-08-29T08:58:08.459Z,23.76
2017-08-29T09:00:40.366Z,23.67
2017-08-29T09:03:09.951Z,23.66
2017-08-29T09:05:39.359Z,23.96
2017-08-29T09:08:08.968Z,23.84
2017-08-29T09:10:38.238Z,23.59
2017-08-29T09:13:07.533Z,24.61
2017-08-29T09:15:37.293Z,24.54
2017-08-29T09:18:07.479Z,23.32
2017-08-29T09:20:36.740Z,23.55
2017-08-29T09:23:06.972Z,23.40
2017-08-29T09:25:36.204Z,24.39
2017-08-29T09:28:05.440Z,23.09
2017-08-29T09:30:35.090Z,23.58
2017-08-29T09:33:04.400Z,23.36
2017-08-29T09:35:33.711Z,24.25
2017-08-29T09:38:03.292Z,24.12
2017-08-29T09:40:32.470Z,23.96
2017-08-29T09:43:01.813Z,24.48
2017-08-29T09:45:31.272Z,24.91
2017-08-29T09:48:00.485Z,25.19
2017-08-29T09:50:29.647Z,24.51
2017-08-29T09:52:58.866Z,24.39
2017-08-29T09:55:28.425Z,24.00
2017-08-29T09:57:57.623Z,24.34
2017-08-29T10:00:27.083Z,24.16
2017-08-29T10:02:56.562Z,24.30
2017-08-29T10:05:25.708Z,24.24
2017-08-29T10:07:55.207Z,24.59
2017-08-29T10:10:24.383Z,24.56
2017-08-29T10:12:53.564Z,24.66
2017-08-29T10:15:23.038Z,24.83
2017-08-29T10:17:52.340Z,24.48
2017-08-29T10:20:21.559Z,25.09
2017-08-29T10:22:51.032Z,25.97
2017-08-29T10:25:20.191Z,25.87
2017-08-29T10:27:49.407Z,26.35
2017-08-29T10:30:18.963Z,26.83
2017-08-29T10:32:48.159Z,27.53
2017-08-29T10:35:17.379Z,27.01
2017-08-29T10:37:47.631Z,26.59
2017-08-29T10:42:52.247Z,27.83
2017-08-29T10:45:21.711Z,28.13
2017-08-29T10:47:51.083Z,28.80
2017-08-29T10:50:20.317Z,28.33
2017-08-29T10:52:50.051Z,28.72
2017-08-29T10:55:19.235Z,28.17
2017-08-29T10:57:48.549Z,28.23
2017-08-29T11:00:18.135Z,28.34
2017-08-29T11:02:49.543Z,28.68
2017-08-29T11:05:18.971Z,29.02
2017-08-29T11:07:48.593Z,28.98
2017-08-29T11:10:19.212Z,28.82
2017-08-29T11:12:49.891Z,28.37
2017-08-29T11:15:19.386Z,28.91
2017-08-29T11:17:48.691Z,29.69
2017-08-29T11:20:18.127Z,29.73
2017-08-29T11:22:48.092Z,29.41
2017-08-29T11:25:17.359Z,29.14
2017-08-29T11:27:47.983Z,29.52
2017-08-29T11:30:17.702Z,28.45
2017-08-29T11:32:47.088Z,27.53
2017-08-29T11:35:16.371Z,28.79
2017-08-29T11:37:48.167Z,28.94
2017-08-29T11:40:17.640Z,29.06
2017-08-29T11:42:48.862Z,29.63
2017-08-29T11:45:18.643Z,29.96
2017-08-29T11:47:49.723Z,29.43
2017-08-29T11:50:19.431Z,29.24
2017-08-29T11:52:49.338Z,28.81
2017-08-29T11:55:18.744Z,30.05
2017-08-29T11:57:48.862Z,29.73
2017-08-29T12:00:18.258Z,30.02
2017-08-29T12:02:47.574Z,29.39
2017-08-29T12:05:17.162Z,28.07
2017-08-29T12:07:46.413Z,29.70
2017-08-29T12:10:15.964Z,28.76
2017-08-29T12:12:49.199Z,28.29
2017-08-29T12:15:18.372Z,27.94
2017-08-29T12:17:48.086Z,29.14
2017-08-29T12:20:17.535Z,30.39
2017-08-29T12:22:48.230Z,30.94
2017-08-29T12:25:17.407Z,30.21
2017-08-29T12:27:48.944Z,31.11
2017-08-29T12:30:18.154Z,30.86
2017-08-29T12:32:48.291Z,29.19
2017-08-29T12:35:17.746Z,30.45
2017-08-29T12:37:48.741Z,30.71
2017-08-29T12:40:17.914Z,30.60
2017-08-29T12:42:49.436Z,30.33
2017-08-29T12:45:18.763Z,30.94
2017-08-29T12:47:49.751Z,30.78
2017-08-29T12:50:19.214Z,31.00
2017-08-29T12:52:49.086Z,31.63
2017-08-29T12:55:22.277Z,30.68
2017-08-29T12:57:52.162Z,30.82
2017-08-29T13:00:21.339Z,30.91
2017-08-29T13:02:50.522Z,29.89
2017-08-29T13:05:20.233Z,29.41
2017-08-29T13:07:49.575Z,28.29
2017-08-29T13:10:18.717Z,29.27
2017-08-29T13:12:48.355Z,29.70
2017-08-29T13:15:17.577Z,29.65
2017-08-29T13:17:46.754Z,29.52
2017-08-29T13:20:16.305Z,28.32
2017-08-29T13:22:48.140Z,29.24
2017-08-29T13:25:17.368Z,28.72
2017-08-29T13:27:48.575Z,30.00
2017-08-29T13:30:17.887Z,30.37
2017-08-29T13:32:48.510Z,30.28
2017-08-29T13:35:17.967Z,30.26
2017-08-29T13:37:47.275Z,30.82
2017-08-29T13:40:16.712Z,30.52
2017-08-29T13:42:48.079Z,30.32
2017-08-29T13:45:17.385Z,30.27
2017-08-29T13:47:46.848Z,30.12
2017-08-29T13:50:16.378Z,29.71
2017-08-29T13:52:47.919Z,28.62
2017-08-29T13:55:17.132Z,29.02
2017-08-29T13:57:48.208Z,29.06
2017-08-29T14:00:17.665Z,29.56
2017-08-29T14:02:50.797Z,29.50
2017-08-29T14:05:20.652Z,29.73
2017-08-29T14:07:49.943Z,29.44
2017-08-29T14:10:19.406Z,29.89
2017-08-29T14:12:50.263Z,29.78
2017-08-29T14:15:19.567Z,29.12
2017-08-29T14:17:48.967Z,29.54
2017-08-29T14:20:18.535Z,29.60
2017-08-29T14:22:47.895Z,29.31
2017-08-29T14:25:17.085Z,29.61
2017-08-29T14:27:46.606Z,29.41
2017-08-29T14:30:15.875Z,29.38
2017-08-29T14:32:47.226Z,29.25
2017-08-29T14:35:17.783Z,28.97
2017-08-29T14:37:46.987Z,29.45
2017-08-29T14:40:16.156Z,29.57
2017-08-29T14:42:49.879Z,28.66
2017-08-29T14:45:19.074Z,29.00
2017-08-29T14:49:58.879Z,29.14
2017-08-29T14:52:28.036Z,28.78
2017-08-29T14:54:57.540Z,28.80
2017-08-29T14:57:26.795Z,29.09
2017-08-29T14:59:55.970Z,28.59
2017-08-29T15:02:25.407Z,28.36
2017-08-29T15:04:54.570Z,28.38
2017-08-29T15:07:23.771Z,28.46
2017-08-29T15:09:53.306Z,28.44
2017-08-29T15:12:22.651Z,28.39
2017-08-29T15:14:51.811Z,28.73
2017-08-29T15:17:21.355Z,28.57
2017-08-29T15:19:50.535Z,28.40
2017-08-29T15:22:19.721Z,28.45
2017-08-29T15:24:49.368Z,28.35
2017-08-29T15:27:18.587Z,28.11
2017-08-29T15:29:48.628Z,28.09
2017-08-29T15:32:18.136Z,28.00
2017-08-29T15:34:47.475Z,28.31
2017-08-29T15:37:16.918Z,28.52
2017-08-29T15:39:46.493Z,28.37
2017-08-29T15:42:15.652Z,28.17
2017-08-29T15:44:44.898Z,28.11
2017-08-29T15:47:14.916Z,28.27
2017-08-29T15:49:44.775Z,28.33
2017-08-29T15:52:13.989Z,28.43
2017-08-29T15:54:43.426Z,28.43
2017-08-29T15:57:12.651Z,28.28
2017-08-29T15:59:42.007Z,28.28
2017-08-29T16:02:11.618Z,28.29
2017-08-29T16:04:40.785Z,28.36
2017-08-29T16:07:09.991Z,27.90
2017-08-29T16:09:39.636Z,27.89
2017-08-29T16:12:08.911Z,28.19
2017-08-29T16:14:38.088Z,27.97
2017-08-29T16:17:07.549Z,28.18
2017-08-29T16:19:36.819Z,27.94
2017-08-29T16:22:06.191Z,27.89
2017-08-29T16:24:35.675Z,27.95
2017-08-29T16:27:04.892Z,27.79
2017-08-29T16:29:34.096Z,27.76
2017-08-29T16:32:03.615Z,27.89
2017-08-29T16:34:32.775Z,27.74
2017-08-29T16:37:01.982Z,27.70
2017-08-29T16:39:31.439Z,27.63
2017-08-29T16:42:00.736Z,27.64
2017-08-29T16:44:29.908Z,27.72
2017-08-29T16:46:59.723Z,27.68
2017-08-29T16:49:29.075Z,27.60
2017-08-29T16:51:58.508Z,27.61
2017-08-29T16:54:27.966Z,27.60
2017-08-29T16:56:57.134Z,27.50
2017-08-29T16:59:26.374Z,27.51
2017-08-29T17:01:55.955Z,27.33
2017-08-29T17:04:25.147Z,27.37
2017-08-29T17:06:54.343Z,27.57
2017-08-29T17:09:24.035Z,27.65
2017-08-29T17:11:59.866Z,27.75
2017-08-29T17:14:29.288Z,27.84
2017-08-29T17:16:58.902Z,27.88
2017-08-29T17:19:28.095Z,27.77
2017-08-29T17:21:57.266Z,27.74
2017-08-29T17:24:26.759Z,27.82
2017-08-29T17:26:56.024Z,27.76
2017-08-29T17:29:25.244Z,27.62
2017-08-29T17:31:54.737Z,27.25
2017-08-29T17:34:23.915Z,26.86
2017-08-29T17:36:53.147Z,26.48
2017-08-29T17:39:22.702Z,26.46
2017-08-29T17:41:51.875Z,26.27
2017-08-29T17:44:21.059Z,26.20
2017-08-29T17:46:50.510Z,26.09
2017-08-29T17:49:19.846Z,25.98
2017-08-29T17:51:49.016Z,25.75
2017-08-29T17:54:19.736Z,25.63
2017-08-29T17:56:48.958Z,25.63
2017-08-29T17:59:18.274Z,25.73
2017-08-29T18:01:48.857Z,25.63
2017-08-29T18:04:18.265Z,25.58
2017-08-29T18:06:49.749Z,25.41
2017-08-29T18:09:19.219Z,25.43
2017-08-29T18:11:48.542Z,25.37
2017-08-29T18:14:17.815Z,25.16
2017-08-29T18:16:48.071Z,25.11
2017-08-29T18:19:17.251Z,25.15
2017-08-29T18:21:48.475Z,25.15
2017-08-29T18:24:18.007Z,25.06
2017-08-29T18:26:50.685Z,24.86
2017-08-29T18:29:19.949Z,24.85
2017-08-29T18:31:49.507Z,24.77
2017-08-29T18:34:18.799Z,24.64
2017-08-29T18:36:49.858Z,24.65
2017-08-29T18:39:19.591Z,24.57
2017-08-29T18:41:48.969Z,24.43
2017-08-29T18:44:18.255Z,24.34
2017-08-29T18:46:48.516Z,24.26
2017-08-29T18:49:17.714Z,24.15
2017-08-29T18:51:48.282Z,24.14
2017-08-29T18:54:17.883Z,24.04
2017-08-29T18:57:01.198Z,23.96
2017-08-29T18:59:31.461Z,23.93
2017-08-29T19:02:00.690Z,23.80
2017-08-29T19:04:29.926Z,23.74
2017-08-29T19:06:59.376Z,23.64
2017-08-29T19:09:28.615Z,23.59
2017-08-29T19:11:57.858Z,23.57
2017-08-29T19:14:27.491Z,23.48
2017-08-29T19:16:56.818Z,23.41
2017-08-29T19:19:26.015Z,23.36
2017-08-29T19:22:00.400Z,23.32
2017-08-29T19:24:29.820Z,23.21
2017-08-29T19:26:59.307Z,22.97
2017-08-29T19:29:33.639Z,23.01
2017-08-29T19:32:05.668Z,22.90
2017-08-29T19:34:39.405Z,22.96
2017-08-29T19:37:09.429Z,22.90
2017-08-29T19:39:38.912Z,22.87
2017-08-29T19:42:09.832Z,22.64
2017-08-29T19:44:39.225Z,22.62
2017-08-29T19:47:08.620Z,22.62
2017-08-29T19:49:38.708Z,22.57
2017-08-29T19:52:08.044Z,22.55
2017-08-29T19:54:37.258Z,22.48
2017-08-29T19:57:06.904Z,22.35
2017-08-29T19:59:36.198Z,22.20
2017-08-29T20:02:05.629Z,22.04
2017-08-29T20:04:35.185Z,22.10
2017-08-29T20:07:04.454Z,21.99
2017-08-29T20:09:33.711Z,21.80
2017-08-29T20:12:03.279Z,21.89
2017-08-29T20:14:32.512Z,21.82
2017-08-29T20:17:01.770Z,21.67
2017-08-29T20:19:31.291Z,21.73
2017-08-29T20:22:00.495Z,21.73
2017-08-29T20:24:29.944Z,21.72
2017-08-29T20:26:59.411Z,21.56
2017-08-29T20:29:28.770Z,21.57
2017-08-29T20:32:13.352Z,21.60
2017-08-29T20:34:42.778Z,21.60
2017-08-29T20:37:14.519Z,21.53
2017-08-29T20:39:43.818Z,21.54
2017-08-29T20:42:18.672Z,21.53
2017-08-29T20:44:55.983Z,21.55
2017-08-29T20:47:25.345Z,21.49
2017-08-29T20:49:56.331Z,21.44
2017-08-29T20:52:26.393Z,21.22
2017-08-29T20:54:55.942Z,21.21
2017-08-29T20:57:26.485Z,21.23
2017-08-29T20:59:55.716Z,21.27
2017-08-29T21:02:25.210Z,21.28
2017-08-29T21:04:56.200Z,21.27
2017-08-29T21:07:25.419Z,21.21
2017-08-29T21:09:54.759Z,21.15
2017-08-29T21:12:24.952Z,21.12
2017-08-29T21:14:58.926Z,21.06
2017-08-29T21:17:29.684Z,21.05
2017-08-29T21:20:00.919Z,20.98
2017-08-29T21:22:30.092Z,20.98
2017-08-29T21:24:59.462Z,20.94
2017-08-29T21:27:29.745Z,20.91
2017-08-29T21:29:59.177Z,20.90
2017-08-29T21:32:28.359Z,20.86
2017-08-29T21:34:57.891Z,20.77
2017-08-29T21:37:27.082Z,20.40
2017-08-29T21:39:57.706Z,20.39
2017-08-29T21:42:27.399Z,20.23
2017-08-29T21:44:56.767Z,20.10
2017-08-29T21:47:25.946Z,20.16
2017-08-29T21:49:55.412Z,20.15
2017-08-29T21:52:24.591Z,20.25
2017-08-29T21:54:53.820Z,20.28
2017-08-29T21:57:23.723Z,20.28
2017-08-29T21:59:53.120Z,20.14
2017-08-29T22:02:23.178Z,20.24
2017-08-29T22:04:52.723Z,20.22
2017-08-29T22:07:21.940Z,20.19
2017-08-29T22:09:51.142Z,20.18
2017-08-29T22:12:20.899Z,20.16
2017-08-29T22:14:50.374Z,20.14
2017-08-29T22:17:19.565Z,20.13
2017-08-29T22:19:49.022Z,19.68
2017-08-29T22:22:18.475Z,19.83
2017-08-29T22:24:47.938Z,19.83
2017-08-29T22:27:17.463Z,19.78
2017-08-29T22:29:48.767Z,19.81
2017-08-29T22:32:17.927Z,19.82
2017-08-29T22:34:49.210Z,19.80
2017-08-29T22:37:18.364Z,19.84
2017-08-29T22:39:48.222Z,19.82
2017-08-29T22:42:17.695Z,19.76
2017-08-29T22:44:48.165Z,19.73
2017-08-29T22:47:17.390Z,19.72
2017-08-29T22:49:48.263Z,19.70
2017-08-29T22:52:17.543Z,19.67
2017-08-29T22:54:46.945Z,19.64
2017-08-29T22:57:16.959Z,19.60
2017-08-29T22:59:47.507Z,19.52
2017-08-29T23:02:16.662Z,19.48
2017-08-29T23:04:47.170Z,19.50
2017-08-29T23:07:17.236Z,19.50
2017-08-29T23:09:50.203Z,19.49
2017-08-29T23:12:19.863Z,19.45
2017-08-29T23:14:49.302Z,19.40
2017-08-29T23:17:18.475Z,19.43
2017-08-29T23:19:48.599Z,19.41
2017-08-29T23:22:18.219Z,19.39
2017-08-29T23:27:16.143Z,19.38
2017-08-29T23:29:47.139Z,19.38
2017-08-29T23:32:16.367Z,19.39
2017-08-29T23:34:47.628Z,19.38
2017-08-29T23:37:17.036Z,19.35
2017-08-29T23:39:46.423Z,19.33
2017-08-29T23:42:15.939Z,19.20
2017-08-29T23:44:46.238Z,18.80
2017-08-29T23:47:16.023Z,18.76
2017-08-29T23:49:46.863Z,18.81
2017-08-29T23:52:16.518Z,18.41
2017-08-29T23:54:47.602Z,18.76
2017-08-29T23:57:17.464Z,18.84
2017-08-29T23:59:48.479Z,18.84
